首页
METAR-TAF:

METAR-TAF

机场 :

蒙德马桑, 法国

纬度: 43-55N, 经度: 000-30W, 海拔: 62米

当前天气观测

该预报发布于33分钟前的21:30 UTC
风速4节,风向东转东北
温度 9°C
湿度 100%
气压 1018 hPa
能见度10公里或以上
1500米以下无云,无积雨云

METAR: LFBM 152130Z AUTO 07004KT CAVOK 09/09 Q1018 BECMG 2000 BR

时间: 00:03 (22:03 UTC)

预报

该预报发布于2小时和3分钟前的20:00 UTC
预报有效从15日的 21点(UTC)到 16日的 21点(UTC)
风速2节,风向多变
能見度: 2000
轻雾
成为
从 16日的 02点(UTC)到 16日的 04点(UTC)
风速5节,风向南转南东
能见度10公里或以上

TAF: LFBM 152000Z 1521/1621 VRB02KT 2000 BR NSC BECMG 1602/1604 16005KT 9999 NSW NSC

超过4000个机场的气象观测和天气预报(METAR&TAF报告)。

可查询的气象台以黄色和红色小点在地图上表示。

将鼠标移到小点上方,可查看气象台名称。

然后点击查看天气观测和预报。

如需切换地图:点击带黑十字的绿色按钮放大地图;点击带横线的绿色按钮缩小地图;或者点击绿色箭头查看邻近地区的地图。


METAR-TAF: